Latest Weather Observations for Gayndah

IDQ60801

Issued at 2:02 pm EST Saturday 30 May 2015 (issued every 30 minutes, with the page automatically refreshed every 10 minutes)

About weather observations | Map of weather stations | Latest weather observations for QLD | Other Formats
Station Details ID: 039066 Name: GAYNDAH AIRPORT Lat: -25.62 Lon: 151.62 Height: 110.9 m
Data from the previous 72 hours. | See also: Recent months at Gayndah
Date/Time
EST
Temp
°C
App
Temp
°C
Dew
Point
Rel
Hum
%
Delta-T
°C
Wind Press
QNH
hPa
Press
MSL
hPa
Rain
since 9 am
mm
Dir
 
Spd
km/h
Gust
km/h
Spd
kts
Gust
kts
30/02:00pm 26.5 26.9 13.6 45 7.6 SW 4 11 2 6 1018.8 1018.6 0.0
30/01:30pm 26.2 26.8 14.3 48 7.1 NE 4 9 2 5 1019.0 1018.8 0.0
30/01:00pm 25.6 26.1 14.1 49 6.8 NNE 4 9 2 5 1019.6 1019.4 0.0
30/12:30pm 25.7 27.2 15.7 54 6.1 W 2 6 1 3 1020.4 1020.2 0.0
30/12:00pm 24.0 25.7 16.3 62 4.7 SSE 2 6 1 3 1021.1 1020.9 0.0
30/11:30am 22.7 24.2 16.7 69 3.7 NW 4 7 2 4 1021.8 1021.6 0.0
30/11:00am 21.1 22.7 16.9 77 2.6 W 4 7 2 4 1022.7 1022.5 0.0
30/10:30am 20.0 22.0 17.0 83 1.8 N 2 6 1 3 1023.2 1023.0 0.0
30/10:00am 17.6 19.7 16.3 92 0.8 CALM 0 0 0 0 1023.4 1023.2 0.0
30/09:30am 16.8 18.6 16.5 98 0.2 ENE 2 2 1 1 1023.9 1023.6 0.0
30/09:00am 16.5 18.6 16.3 99 0.1 CALM 0 0 0 0 1024.1 1023.8 0.0
30/08:00am 15.0 16.6 15.0 100 0.0 CALM 0 0 0 0 1023.7 1023.4 0.0
30/07:30am 14.2 15.5 14.0 99 0.1 CALM 0 0 0 0 1023.8 1023.5 0.0
30/07:00am 13.9 15.1 13.7 99 0.1 CALM 0 0 0 0 1023.4 1023.2 0.0
30/06:30am 13.3 14.3 13.1 99 0.1 CALM 0 0 0 0 1023.2 1023.0 0.0
30/06:00am 13.3 14.3 13.1 99 0.1 CALM 0 0 0 0 1022.9 1022.7 0.0
30/05:30am 12.4 13.1 12.2 99 0.1 CALM 0 0 0 0 1022.5 1022.3 0.0
30/05:00am 12.0 12.2 11.7 98 0.2 W 2 4 1 2 1022.2 1022.0 0.0
30/04:30am 12.5 13.2 12.2 98 0.2 CALM 0 0 0 0 1021.9 1021.7 0.0
30/04:00am 12.1 12.6 11.6 97 0.3 CALM 0 0 0 0 1021.8 1021.6 0.0
30/03:30am 12.3 12.8 11.7 96 0.3 CALM 0 0 0 0 1022.0 1021.8 0.0
30/03:00am 12.8 13.5 12.3 97 0.3 CALM 0 0 0 0 1022.0 1021.8 0.0
30/02:30am 12.8 13.5 12.2 96 0.3 CALM 0 0 0 0 1022.0 1021.8 0.0
30/02:00am 13.2 14.0 12.6 96 0.3 CALM 0 0 0 0 1022.2 1022.0 0.0
30/01:30am 13.6 14.5 13.0 96 0.3 CALM 0 0 0 0 1022.5 1022.3 0.0
30/01:00am 13.9 14.9 13.3 96 0.3 CALM 0 0 0 0 1022.7 1022.5 0.0
30/12:30am 14.1 15.1 13.1 94 0.6 CALM 0 0 0 0 1022.8 1022.6 0.0
30/12:00am 14.6 15.6 13.3 92 0.7 CALM 0 0 0 0 1022.9 1022.7 0.0
 
Date/Time
EST
Temp
°C
App
Temp
°C
Dew
Point
Rel
Hum
%
Delta-T
°C
Wind Press
QNH
hPa
Press
MSL
hPa
Rain
since 9 am
mm
Dir
 
Spd
km/h
Gust
km/h
Spd
kts
Gust
kts
29/11:30pm 15.0 16.2 13.9 93 0.6 CALM 0 0 0 0 1023.1 1022.9 0.0
29/11:00pm 14.5 14.7 13.2 92 0.7 SSE 4 6 2 3 1023.4 1023.2 0.0
29/10:30pm 14.9 15.9 13.1 89 1.0 CALM 0 0 0 0 1023.4 1023.2 0.0
29/10:00pm 15.7 16.8 13.5 87 1.2 CALM 0 0 0 0 1023.4 1023.2 0.0
29/09:30pm 15.9 17.0 13.6 86 1.3 CALM 0 0 0 0 1023.3 1023.1 0.0
29/09:00pm 16.2 17.4 13.7 85 1.4 CALM 0 0 0 0 1023.2 1023.0 0.0
29/08:30pm 16.8 18.0 13.7 82 1.8 CALM 0 0 0 0 1023.1 1022.9 0.0
29/08:00pm 16.9 18.1 13.8 82 1.8 CALM 0 0 0 0 1023.0 1022.8 0.0
29/07:30pm 17.2 17.7 12.9 76 2.4 S 2 13 1 7 1022.9 1022.7 0.0
29/07:00pm 17.9 18.3 13.8 77 2.3 S 4 4 2 2 1022.5 1022.3 0.0
29/06:30pm 17.5 17.1 12.4 72 2.8 SSE 6 7 3 4 1022.2 1022.0 0.0
29/06:00pm 19.6 20.6 13.3 67 3.6 CALM 0 0 0 0 1021.9 1021.7 0.0
29/05:30pm 20.9 22.0 13.6 63 4.2 CALM 0 0 0 0 1021.7 1021.5 0.0
29/05:00pm 25.2 26.4 13.7 49 6.8 CALM 0 0 0 0 1021.4 1021.2 0.0
29/04:30pm 25.6 26.8 13.8 48 7.0 CALM 0 0 0 0 1021.3 1021.1 0.0
29/04:00pm 25.6 25.6 12.4 43 7.6 ENE 4 7 2 4 1021.3 1021.1 0.0
29/03:30pm 25.9 26.6 13.4 46 7.4 NW 2 4 1 2 1021.1 1020.9 0.0
29/03:00pm 25.1 26.1 14.3 51 6.4 W 2 7 1 4 1021.1 1020.9 0.0
29/02:30pm 25.6 26.0 14.7 51 6.6 NW 6 7 3 4 1021.2 1021.0 0.0
29/02:00pm 25.5 25.7 14.6 51 6.5 ENE 7 11 4 6 1021.4 1021.2 0.0
29/01:30pm 25.3 26.0 14.4 50 6.5 N 4 7 2 4 1021.6 1021.4 0.0
29/01:00pm 25.3 25.5 14.7 51 6.3 NNW 7 13 4 7 1022.1 1021.9 0.0
29/12:30pm 24.9 25.3 15.2 54 5.9 NW 7 15 4 8 1022.7 1022.5 0.0
29/12:00pm 23.9 24.6 15.7 60 5.0 N 6 11 3 6 1023.1 1022.9 0.0
29/11:30am 22.6 23.9 16.2 67 3.9 WSW 4 7 2 4 1023.7 1023.4 0.0
29/11:00am 22.2 23.3 16.7 71 3.4 NW 6 11 3 6 1024.2 1023.9 0.0
29/10:30am 21.2 22.5 16.2 73 3.0 N 4 7 2 4 1024.4 1024.1 0.0
29/10:00am 20.4 22.3 16.6 79 2.3 N 2 6 1 3 1024.7 1024.4 0.0
29/09:30am 17.8 19.8 16.0 89 1.1 CALM 0 2 0 1 1025.2 1025.0 0.0
29/09:00am 15.5 16.9 15.3 99 0.1 NW 2 4 1 2 1025.2 1025.0 0.0
29/08:30am 14.8 16.3 14.6 99 0.1 CALM 0 0 0 0 1025.0 1024.8 0.0
29/08:00am 14.4 15.7 14.2 99 0.1 CALM 0 0 0 0 1024.8 1024.5 0.0
29/07:30am 13.9 15.1 13.7 99 0.1 CALM 0 0 0 0 1024.5 1024.2 0.0
29/07:00am 13.0 13.9 12.8 99 0.1 CALM 0 0 0 0 1024.3 1024.0 0.0
29/06:30am 12.5 13.2 12.3 99 0.1 CALM 0 0 0 0 1024.0 1023.7 0.0
29/06:00am 12.6 13.4 12.4 99 0.1 CALM 0 0 0 0 1024.0 1023.7 0.0
29/05:30am 12.3 13.0 12.1 99 0.1 CALM 0 0 0 0 1023.7 1023.4 0.0
29/05:00am 12.0 12.5 11.7 98 0.2 CALM 0 0 0 0 1023.2 1023.0 0.0
29/04:30am 11.7 12.1 11.2 97 0.3 CALM 0 0 0 0 1022.9 1022.7 0.0
29/04:00am 12.0 12.5 11.5 97 0.3 CALM 0 0 0 0 1022.9 1022.7 0.0
29/03:30am 12.4 13.1 12.1 98 0.2 CALM 0 0 0 0 1023.1 1022.9 0.0
29/03:00am 12.6 13.3 12.3 98 0.2 CALM 0 0 0 0 1022.9 1022.7 0.0
29/02:30am 12.6 13.3 12.3 98 0.2 CALM 0 0 0 0 1022.9 1022.7 0.0
29/02:00am 12.8 13.5 12.3 97 0.3 CALM 0 0 0 0 1023.2 1023.0 0.0
29/01:30am 13.1 13.9 12.6 97 0.3 CALM 0 0 0 0 1023.3 1023.1 0.0
29/01:00am 13.2 14.0 12.6 96 0.3 CALM 0 0 0 0 1023.5 1023.3 0.0
29/12:30am 13.1 13.8 12.2 94 0.5 CALM 0 0 0 0 1023.7 1023.4 0.0
29/12:00am 13.6 14.3 12.3 92 0.7 CALM 0 0 0 0 1023.7 1023.4 0.0
 
Date/Time
EST
Temp
°C
App
Temp
°C
Dew
Point
Rel
Hum
%
Delta-T
°C
Wind Press
QNH
hPa
Press
MSL
hPa
Rain
since 9 am
mm
Dir
 
Spd
km/h
Gust
km/h
Spd
kts
Gust
kts
28/11:30pm 14.2 15.2 13.2 94 0.6 CALM 0 0 0 0 1023.7 1023.4 0.0
28/11:00pm 14.7 15.9 13.7 94 0.6 CALM 0 0 0 0 1023.7 1023.4 0.0
28/10:30pm 15.0 16.1 13.5 91 0.8 CALM 0 0 0 0 1023.7 1023.4 0.0
28/10:00pm 15.4 16.5 13.6 89 1.0 CALM 0 0 0 0 1024.0 1023.7 0.0
28/09:30pm 15.6 16.6 13.3 86 1.3 CALM 0 0 0 0 1024.0 1023.7 0.0
28/09:00pm 16.2 17.4 13.7 85 1.4 CALM 0 0 0 0 1023.8 1023.5 0.0
28/08:30pm 16.9 18.0 13.4 80 2.0 CALM 0 0 0 0 1024.0 1023.7 0.0
28/08:00pm 18.2 19.4 13.9 76 2.5 CALM 0 2 0 1 1023.8 1023.5 0.0
28/07:30pm 18.3 18.4 14.0 76 2.5 NE 6 7 3 4 1023.3 1023.1 0.0
28/07:00pm 18.5 19.6 13.4 72 2.9 CALM 0 0 0 0 1022.8 1022.6 0.0
28/06:30pm 19.0 19.6 13.0 68 3.4 NE 2 2 1 1 1022.1 1021.9 0.0
28/06:00pm 19.9 20.5 13.1 65 3.9 NE 2 2 1 1 1021.8 1021.6 0.0
28/05:30pm 21.2 20.9 13.4 61 4.5 E 7 9 4 5 1021.3 1021.1 0.0
28/05:00pm 22.7 22.2 12.6 53 5.8 ENE 7 9 4 5 1020.9 1020.7 0.0
28/04:30pm 24.5 24.0 12.8 48 6.8 ENE 7 11 4 6 1020.8 1020.6 0.0
28/04:00pm 25.4 25.1 11.6 42 7.9 N 4 7 2 4 1020.9 1020.7 0.0
28/03:30pm 25.5 25.7 12.0 43 7.8 NNW 2 6 1 3 1020.8 1020.6 0.0
28/03:00pm 25.3 24.9 12.5 45 7.4 NW 6 7 3 4 1020.8 1020.6 0.0
28/02:30pm 25.7 26.0 13.5 46 7.2 E 4 15 2 8 1021.0 1020.8 0.0
28/02:00pm 25.2 24.6 13.4 48 6.9 S 9 17 5 9 1021.1 1020.9 0.0
28/01:30pm 25.3 25.1 12.9 46 7.2 E 6 11 3 6 1021.5 1021.3 0.0
28/01:00pm 24.6 24.5 13.2 49 6.6 NNW 6 9 3 5 1022.0 1021.8 0.0
28/12:30pm 24.7 25.0 14.5 53 6.1 NW 6 11 3 6 1022.5 1022.3 0.0
28/12:00pm 24.1 24.3 14.2 54 5.8 E 6 9 3 5 1022.9 1022.7 0.0
28/11:30am 23.2 23.8 14.2 57 5.3 ESE 4 7 2 4 1023.4 1023.2 0.0
28/11:00am 22.7 23.9 14.8 61 4.7 W 2 7 1 4 1024.1 1023.8 0.0
28/10:30am 21.4 22.8 15.3 68 3.6 WNW 2 7 1 4 1024.3 1024.0 0.0
28/10:00am 19.4 20.7 15.1 76 2.5 WNW 2 7 1 4 1024.8 1024.5 0.0
28/09:30am 17.5 18.2 14.6 83 1.7 NNE 4 7 2 4 1024.7 1024.4 0.0
28/09:00am 15.7 15.7 13.7 88 1.1 NE 6 7 3 4 1024.5 1024.2 0.0
28/08:30am 14.6 14.1 12.8 89 1.0 NE 7 9 4 5 1024.3 1024.0 0.0
28/08:00am 14.6 15.0 13.8 95 0.4 NE 4 6 2 3 1024.1 1023.8 0.0
28/07:30am 13.3 13.9 13.1 99 0.1 WSW 2 6 1 3 1024.1 1023.8 0.0
28/07:00am 10.9 10.7 10.6 98 0.2 W 2 2 1 1 1023.8 1023.5 0.0
28/06:30am 10.7 10.9 10.4 98 0.2 CALM 0 0 0 0 1023.7 1023.4 0.0
28/06:00am 11.1 11.3 10.6 97 0.3 CALM 0 4 0 2 1023.0 1022.8 0.0
28/05:30am 10.9 11.1 10.4 97 0.3 CALM 0 0 0 0 1022.6 1022.4 0.0
28/05:00am 11.5 11.8 11.0 97 0.3 CALM 0 0 0 0 1022.6 1022.4 0.0
28/04:30am 12.0 12.2 11.7 98 0.2 SW 2 4 1 2 1022.5 1022.3 0.0
28/04:00am 12.4 13.1 12.1 98 0.2 CALM 0 0 0 0 1022.3 1022.1 0.0
28/03:30am 12.5 13.2 12.2 98 0.2 CALM 0 0 0 0 1022.3 1022.1 0.0
28/03:00am 12.5 13.1 12.0 97 0.3 CALM 0 0 0 0 1022.4 1022.2 0.0
28/02:30am 12.2 12.6 11.4 95 0.4 CALM 0 0 0 0 1022.6 1022.4 0.0
28/02:00am 13.3 14.2 12.8 97 0.3 CALM 0 0 0 0 1022.2 1022.0 0.0
28/01:30am 13.3 13.8 12.7 96 0.3 S 2 2 1 1 1022.2 1022.0 0.0
28/01:00am 14.0 15.1 13.4 96 0.3 CALM 0 0 0 0 1022.7 1022.5 0.0
28/12:30am 14.2 14.5 13.4 95 0.4 SSE 4 6 2 3 1022.9 1022.7 0.0
28/12:00am 14.6 15.7 13.6 94 0.6 CALM 0 0 0 0 1022.8 1022.6 0.0
 
Date/Time
EST
Temp
°C
App
Temp
°C
Dew
Point
Rel
Hum
%
Delta-T
°C
Wind Press
QNH
hPa
Press
MSL
hPa
Rain
since 9 am
mm
Dir
 
Spd
km/h
Gust
km/h
Spd
kts
Gust
kts
27/11:30pm 14.9 16.0 13.6 92 0.7 CALM 0 0 0 0 1022.7 1022.5 0.0
27/11:00pm 15.8 16.4 14.3 91 0.9 NE 4 4 2 2 1022.7 1022.5 0.0
27/10:30pm 16.2 16.3 13.9 86 1.3 NE 6 6 3 3 1023.1 1022.9 0.0
27/10:00pm 17.6 19.0 14.5 82 1.8 CALM 0 4 0 2 1023.2 1023.0 0.0
27/09:30pm 18.4 18.9 15.1 81 1.9 NNE 6 9 3 5 1023.0 1022.8 0.0
27/09:00pm 17.5 18.4 14.0 80 2.0 NE 2 6 1 3 1022.8 1022.6 0.0
27/08:30pm 18.5 18.6 14.4 77 2.4 ENE 7 9 4 5 1022.6 1022.4 0.0
27/08:00pm 19.0 19.0 14.1 73 2.8 ENE 7 11 4 6 1022.6 1022.4 0.0
27/07:30pm 19.0 19.1 13.8 72 3.0 E 6 7 3 4 1022.3 1022.1 0.0
27/07:00pm 19.5 20.7 13.7 69 3.3 CALM 0 0 0 0 1022.2 1022.0 0.0
27/06:30pm 19.7 20.7 13.2 66 3.7 CALM 0 0 0 0 1021.7 1021.5 0.0
27/06:00pm 20.0 20.6 13.2 65 3.9 SE 2 4 1 2 1021.2 1021.0 0.0
27/05:30pm 21.1 22.0 13.0 60 4.6 CALM 0 0 0 0 1020.9 1020.7 0.0
27/05:00pm 22.5 23.0 12.7 54 5.6 ENE 2 4 1 2 1020.9 1020.7 0.0
27/04:30pm 23.3 22.3 12.3 50 6.3 E 9 13 5 7 1020.8 1020.6 0.0
27/04:00pm 24.2 24.0 11.9 46 7.0 WNW 4 6 2 3 1020.6 1020.4 0.0
27/03:30pm 24.9 24.4 12.5 46 7.2 W 7 11 4 6 1020.6 1020.4 0.0
27/03:00pm 24.4 24.2 13.0 49 6.6 W 6 7 3 4 1020.6 1020.4 0.0
27/02:30pm 23.2 22.9 12.8 52 6.0 S 6 6 3 3 1020.8 1020.6 0.0

Other Formats:

Comma delimited format used in spreadsheet applications
http://www.bom.gov.au/fwo/IDQ60801/IDQ60801.95543.axf

JavaScript Object Notation format (JSON) in row-major order
http://www.bom.gov.au/fwo/IDQ60801/IDQ60801.95543.json